Time;durP1;ratioP1;P1;durP2;ratioP2;P2;SDS_P1;SDS_P2;PMS_P1;PMS_P2;Temp;Humidity;BMP_temperature;BMP_pressure;BME280_temperature;BME280_humidity;BME280_pressure;Samples;Min_cycle;Max_cycle;Signal;HPM_P1;HPM_P2
2022/07/13 00:01:01;;;;;;;7.30;6.70;;;22.30;99.90;;;;;;5078081;28;20184;-68
2022/07/13 00:03:27;;;;;;;8.68;8.10;;;22.20;99.90;;;;;;5076057;28;20174;-68
2022/07/13 00:05:52;;;;;;;7.57;6.97;;;22.20;99.90;;;;;;5073445;28;20202;-69
2022/07/13 00:08:18;;;;;;;9.25;8.57;;;22.10;99.90;;;;;;5073034;28;20200;-73
2022/07/13 00:10:44;;;;;;;7.15;6.65;;;22.10;99.90;;;;;;5073361;28;20603;-69
2022/07/13 00:13:10;;;;;;;7.25;6.60;;;22.10;99.90;;;;;;5072927;28;20162;-69
2022/07/13 00:15:36;;;;;;;7.60;7.10;;;22.00;99.90;;;;;;5072135;28;20194;-68
2022/07/13 00:18:01;;;;;;;5.93;5.43;;;21.90;99.90;;;;;;5073050;28;20221;-69
2022/07/13 00:20:27;;;;;;;9.70;8.77;;;21.90;99.90;;;;;;5071195;28;20170;-69
2022/07/13 00:22:54;;;;;;;8.80;6.80;;;21.80;99.90;;;;;;5072667;28;20196;-69
2022/07/13 00:25:20;;;;;;;8.73;8.23;;;21.80;99.90;;;;;;5071690;28;20190;-68
2022/07/13 00:27:46;;;;;;;7.85;7.15;;;21.70;99.90;;;;;;5072513;28;20198;-69
2022/07/13 00:30:12;;;;;;;7.63;7.03;;;21.80;99.90;;;;;;5072356;28;20185;-68
2022/07/13 00:32:37;;;;;;;7.63;7.13;;;21.80;99.90;;;;;;5072336;28;20275;-69
2022/07/13 00:35:04;;;;;;;8.18;7.50;;;21.80;99.90;;;;;;5071702;28;20170;-69
2022/07/13 00:37:29;;;;;;;7.55;6.80;;;21.80;99.90;;;;;;5071395;28;20542;-69
2022/07/13 00:39:55;;;;;;;8.02;6.88;;;21.90;99.90;;;;;;5072150;28;20185;-69
2022/07/13 00:42:21;;;;;;;8.87;7.37;;;21.90;99.90;;;;;;5072237;28;20169;-69
2022/07/13 00:44:46;;;;;;;7.43;6.72;;;21.90;99.90;;;;;;5071964;28;20170;-68
2022/07/13 00:47:12;;;;;;;7.47;6.70;;;21.90;99.90;;;;;;5071578;28;20577;-69
2022/07/13 00:49:38;;;;;;;7.28;6.57;;;21.90;99.90;;;;;;5071919;28;20182;-68
2022/07/13 00:52:04;;;;;;;7.07;6.47;;;21.80;99.90;;;;;;5072227;28;20666;-69
2022/07/13 00:54:30;;;;;;;8.82;8.32;;;21.70;99.90;;;;;;5070949;28;20178;-69
2022/07/13 00:56:59;;;;;;;7.77;7.27;;;21.60;99.90;;;;;;5072026;28;20198;-69
2022/07/13 00:59:25;;;;;;;7.80;7.20;;;21.50;99.90;;;;;;5071541;28;20288;-68
2022/07/13 01:01:52;;;;;;;7.05;5.97;;;21.30;99.90;;;;;;5072555;28;20650;-69
2022/07/13 01:04:19;;;;;;;8.03;7.53;;;21.20;99.90;;;;;;5070561;28;20174;-69
2022/07/13 01:06:45;;;;;;;6.35;5.85;;;21.20;99.90;;;;;;5071542;28;20213;-68
2022/07/13 01:09:10;;;;;;;5.93;5.33;;;21.10;99.90;;;;;;5071814;28;20177;-67
2022/07/13 01:11:37;;;;;;;6.40;6.00;;;21.10;99.90;;;;;;5071533;28;20643;-69
2022/07/13 01:14:02;;;;;;;6.17;5.67;;;21.10;99.90;;;;;;5071512;28;20211;-69
2022/07/13 01:16:28;;;;;;;5.90;5.50;;;21.10;99.90;;;;;;5071453;28;20190;-68
2022/07/13 01:18:55;;;;;;;5.53;5.00;;;21.10;99.90;;;;;;5071836;28;20540;-69
2022/07/13 01:21:20;;;;;;;5.30;4.90;;;21.10;99.90;;;;;;5071281;28;20257;-68
2022/07/13 01:23:47;;;;;;;6.60;6.10;;;21.10;99.90;;;;;;5071418;28;20205;-68
2022/07/13 01:26:13;;;;;;;6.50;5.90;;;21.10;99.90;;;;;;5071352;28;20202;-69
2022/07/13 01:28:39;;;;;;;5.53;5.10;;;21.10;99.90;;;;;;5051542;28;20183;-69
2022/07/13 01:31:05;;;;;;;7.70;7.20;;;21.10;99.90;;;;;;5052264;28;20280;-69
2022/07/13 01:33:31;;;;;;;6.00;5.60;;;21.10;99.90;;;;;;5070113;28;20193;-69
2022/07/13 01:35:56;;;;;;;5.55;5.15;;;21.20;99.90;;;;;;5070642;28;20213;-69
2022/07/13 01:38:23;;;;;;;8.03;7.43;;;21.20;99.90;;;;;;5071622;28;20243;-68
2022/07/13 01:40:49;;;;;;;6.80;6.27;;;21.20;99.90;;;;;;5071519;28;20189;-69
2022/07/13 01:43:16;;;;;;;6.67;6.10;;;21.20;99.90;;;;;;5069791;28;20186;-68
2022/07/13 01:45:44;;;;;;;6.70;6.23;;;21.30;99.90;;;;;;5071028;28;20202;-69
2022/07/13 01:48:10;;;;;;;14.57;13.73;;;21.30;99.90;;;;;;5071178;28;20209;-68
2022/07/13 01:50:36;;;;;;;6.47;6.07;;;21.40;99.90;;;;;;5071376;28;20585;-67
2022/07/13 01:53:02;;;;;;;14.43;13.63;;;21.40;99.90;;;;;;5071066;28;20182;-69
2022/07/13 01:55:28;;;;;;;7.32;6.93;;;21.40;99.90;;;;;;5070872;28;20667;-69
2022/07/13 01:57:58;;;;;;;11.00;10.50;;;21.40;99.90;;;;;;5071190;28;20178;-69
2022/07/13 02:00:24;;;;;;;13.00;12.23;;;21.50;99.90;;;;;;5072211;28;20234;-69
2022/07/13 02:02:50;;;;;;;8.40;7.90;;;21.40;99.90;;;;;;5071669;28;20522;-69
2022/07/13 02:05:16;;;;;;;12.80;12.10;;;21.40;99.90;;;;;;5072183;28;20654;-68
2022/07/13 02:07:42;;;;;;;8.00;7.27;;;21.40;99.90;;;;;;5074924;28;20217;-69
2022/07/13 02:10:10;;;;;;;7.53;7.07;;;21.40;99.90;;;;;;5075030;28;20182;-68
2022/07/13 02:12:35;;;;;;;6.83;6.43;;;21.40;99.90;;;;;;5075047;28;20173;-69
2022/07/13 02:15:01;;;;;;;9.13;8.53;;;21.40;99.90;;;;;;5074470;28;20173;-68
2022/07/13 02:17:27;;;;;;;6.70;6.40;;;21.40;99.90;;;;;;5074761;28;20178;-68
2022/07/13 02:19:53;;;;;;;7.37;5.60;;;21.40;99.90;;;;;;5074976;28;20218;-69
2022/07/13 02:22:18;;;;;;;7.82;7.28;;;21.40;99.90;;;;;;5074558;28;20265;-69
2022/07/13 02:24:44;;;;;;;6.40;6.00;;;21.40;99.90;;;;;;5074419;28;20174;-69
2022/07/13 02:27:10;;;;;;;7.50;6.87;;;21.40;99.90;;;;;;5075039;28;20216;-69
2022/07/13 02:29:35;;;;;;;6.47;6.15;;;21.50;99.90;;;;;;5074378;28;20189;-69
2022/07/13 02:32:01;;;;;;;7.20;6.80;;;21.50;99.90;;;;;;5074827;28;20193;-69
2022/07/13 02:34:27;;;;;;;6.20;5.70;;;21.50;99.90;;;;;;5074137;28;20178;-69
2022/07/13 02:36:56;;;;;;;6.10;5.70;;;21.40;99.90;;;;;;5074645;28;20690;-68
2022/07/13 02:39:22;;;;;;;6.60;6.13;;;21.50;99.90;;;;;;5074070;28;20544;-69
2022/07/13 02:41:49;;;;;;;8.27;7.70;;;21.60;99.90;;;;;;5074691;28;20589;-68
2022/07/13 02:44:15;;;;;;;9.80;7.03;;;21.60;99.90;;;;;;5073894;28;20706;-68
2022/07/13 02:46:41;;;;;;;9.00;6.25;;;21.60;99.90;;;;;;5074263;28;20671;-69
2022/07/13 02:49:06;;;;;;;10.93;10.37;;;21.50;99.90;;;;;;5074238;28;20185;-69
2022/07/13 02:51:32;;;;;;;9.20;8.73;;;21.50;99.90;;;;;;5074202;28;20271;-68
2022/07/13 02:53:58;;;;;;;11.55;11.00;;;21.50;99.90;;;;;;5073656;28;20646;-68
2022/07/13 02:56:23;;;;;;;9.50;8.97;;;21.40;99.90;;;;;;5074108;28;20201;-69
2022/07/13 02:58:49;;;;;;;10.73;9.93;;;21.40;99.90;;;;;;5074267;28;20174;-69
2022/07/13 03:01:14;;;;;;;9.75;9.23;;;21.40;99.90;;;;;;5074197;28;20217;-68
2022/07/13 03:03:40;;;;;;;7.07;6.63;;;21.40;99.90;;;;;;5073387;28;20181;-68
2022/07/13 03:06:06;;;;;;;7.07;6.60;;;21.30;99.90;;;;;;5074293;28;20198;-69
2022/07/13 03:08:31;;;;;;;6.23;5.90;;;21.20;99.90;;;;;;5073833;28;20177;-68
2022/07/13 03:10:57;;;;;;;5.53;5.13;;;21.10;99.90;;;;;;5074289;28;20216;-69
2022/07/13 03:13:22;;;;;;;6.53;6.13;;;21.10;99.90;;;;;;5073465;28;20205;-68
2022/07/13 03:15:48;;;;;;;7.13;6.57;;;21.10;99.90;;;;;;5073891;28;20716;-67
2022/07/13 03:18:14;;;;;;;6.27;5.90;;;21.00;99.90;;;;;;5073178;28;20186;-69
2022/07/13 03:20:40;;;;;;;7.80;7.40;;;21.00;99.90;;;;;;5073918;28;20174;-69
2022/07/13 03:23:05;;;;;;;5.50;5.10;;;21.00;99.90;;;;;;5073850;28;20240;-69
2022/07/13 03:25:31;;;;;;;6.00;5.60;;;21.00;99.90;;;;;;5073541;28;20277;-67
2022/07/13 03:27:56;;;;;;;7.60;7.10;;;21.10;99.90;;;;;;5073390;28;20173;-68
2022/07/13 03:30:22;;;;;;;5.28;4.97;;;21.10;99.90;;;;;;5074102;28;20170;-68
2022/07/13 03:32:48;;;;;;;5.20;4.80;;;21.10;99.90;;;;;;5073487;28;20265;-69
2022/07/13 03:35:14;;;;;;;4.90;4.57;;;21.10;99.90;;;;;;5073183;28;20678;-68
2022/07/13 03:37:40;;;;;;;5.83;5.43;;;21.20;99.90;;;;;;5073373;28;20178;-68
2022/07/13 03:40:06;;;;;;;5.53;5.13;;;21.20;99.90;;;;;;5073702;28;20205;-68
2022/07/13 03:42:33;;;;;;;6.13;5.80;;;21.20;99.90;;;;;;5073218;28;20538;-68
2022/07/13 03:44:59;;;;;;;6.38;5.97;;;21.20;99.90;;;;;;5072984;28;20175;-68
2022/07/13 03:47:24;;;;;;;6.50;6.00;;;21.30;99.90;;;;;;5072796;28;20687;-68
2022/07/13 03:49:50;;;;;;;5.50;5.07;;;21.30;99.90;;;;;;5073449;28;20174;-68
2022/07/13 03:52:15;;;;;;;7.17;6.77;;;21.30;99.90;;;;;;5073075;28;20174;-68
2022/07/13 03:54:41;;;;;;;6.90;6.40;;;21.30;99.90;;;;;;5072957;28;20185;-69
2022/07/13 03:57:07;;;;;;;5.80;5.40;;;21.40;99.90;;;;;;5073036;28;20202;-68
2022/07/13 03:59:32;;;;;;;6.55;5.95;;;21.40;99.90;;;;;;5072929;28;20288;-69
2022/07/13 04:01:58;;;;;;;6.32;5.72;;;21.30;99.90;;;;;;5073222;28;20268;-69
2022/07/13 04:04:23;;;;;;;7.53;7.13;;;21.30;99.90;;;;;;5072716;28;20192;-67
2022/07/13 04:06:49;;;;;;;10.43;9.73;;;21.40;99.90;;;;;;5072923;28;20684;-69
2022/07/13 04:09:14;;;;;;;8.60;6.07;;;21.40;99.90;;;;;;5073063;28;20182;-69
2022/07/13 04:11:40;;;;;;;4.95;4.65;;;21.40;99.90;;;;;;5072719;28;20178;-69
2022/07/13 04:14:06;;;;;;;8.13;7.73;;;21.40;99.90;;;;;;5072387;28;20186;-68
2022/07/13 04:16:31;;;;;;;10.03;9.23;;;21.40;99.90;;;;;;5072639;28;20327;-69
2022/07/13 04:18:57;;;;;;;12.63;11.82;;;21.40;99.90;;;;;;5072603;28;20603;-69
2022/07/13 04:21:22;;;;;;;7.37;6.87;;;21.40;99.90;;;;;;5072424;28;20174;-69
2022/07/13 04:23:49;;;;;;;9.83;9.23;;;21.40;99.90;;;;;;5071974;28;20274;-68
2022/07/13 04:26:14;;;;;;;10.70;10.10;;;21.50;99.90;;;;;;5072262;28;20212;-68
2022/07/13 04:28:40;;;;;;;5.75;5.35;;;21.50;99.90;;;;;;5072630;28;20639;-68
2022/07/13 04:31:06;;;;;;;9.98;9.48;;;21.50;99.90;;;;;;5072584;28;20178;-68
2022/07/13 04:33:31;;;;;;;7.03;6.47;;;21.50;99.90;;;;;;5072136;28;20590;-68
2022/07/13 04:35:57;;;;;;;6.93;6.43;;;21.50;99.90;;;;;;5087087;22;20322;-71
2022/07/13 04:38:22;;;;;;;6.70;6.20;;;21.60;99.90;;;;;;5032363;28;20171;-71
2022/07/13 04:40:48;;;;;;;5.97;5.53;;;21.60;99.90;;;;;;5034005;28;20198;-71
2022/07/13 04:43:13;;;;;;;6.60;5.97;;;21.60;99.90;;;;;;5052156;28;20597;-71
2022/07/13 04:45:39;;;;;;;8.02;6.80;;;21.60;99.90;;;;;;5051057;28;20191;-71
2022/07/13 04:48:05;;;;;;;8.20;7.40;;;21.60;99.90;;;;;;5032243;28;20251;-71
2022/07/13 04:50:31;;;;;;;9.23;8.63;;;21.60;99.90;;;;;;5032093;28;20593;-71
2022/07/13 04:52:56;;;;;;;6.95;6.30;;;21.60;99.90;;;;;;5049077;28;20182;-72
2022/07/13 04:55:22;;;;;;;7.80;7.07;;;21.60;99.90;;;;;;5034822;28;20176;-72
2022/07/13 04:57:47;;;;;;;6.97;6.13;;;21.70;99.90;;;;;;5031939;28;20176;-71
2022/07/13 05:00:14;;;;;;;8.40;7.68;;;21.60;99.90;;;;;;5044914;28;20210;-71
2022/07/13 05:02:39;;;;;;;7.05;6.28;;;21.60;99.90;;;;;;5051772;28;20202;-71
2022/07/13 05:05:06;;;;;;;8.23;6.07;;;21.50;99.90;;;;;;5038546;28;20600;-71
2022/07/13 05:07:31;;;;;;;8.13;5.75;;;21.50;99.90;;;;;;5031542;28;20203;-71
2022/07/13 05:09:57;;;;;;;6.70;6.10;;;21.50;99.90;;;;;;5032971;28;20183;-71
2022/07/13 05:12:23;;;;;;;6.23;5.63;;;21.50;99.90;;;;;;5030611;28;20429;-71
2022/07/13 05:14:48;;;;;;;7.35;6.75;;;21.50;99.90;;;;;;5041138;28;20205;-70
2022/07/13 05:17:16;;;;;;;6.33;5.83;;;21.40;99.90;;;;;;5050336;28;20333;-71
2022/07/13 05:19:41;;;;;;;6.23;5.60;;;21.40;99.90;;;;;;5043302;28;20191;-70
2022/07/13 05:22:07;;;;;;;6.20;5.60;;;21.30;99.90;;;;;;5031727;28;20168;-70
2022/07/13 05:24:33;;;;;;;6.90;6.40;;;21.40;99.90;;;;;;5037696;28;20241;-71
2022/07/13 05:26:58;;;;;;;8.27;6.13;;;21.40;99.90;;;;;;5051406;28;20202;-71
2022/07/13 05:29:24;;;;;;;7.03;6.17;;;21.50;99.90;;;;;;5046568;28;20171;-71
2022/07/13 05:31:49;;;;;;;5.70;5.30;;;21.60;99.90;;;;;;5033743;28;21054;-71
2022/07/13 05:34:15;;;;;;;8.55;6.50;;;21.60;99.90;;;;;;5051156;28;20225;-70
2022/07/13 05:36:41;;;;;;;6.10;5.60;;;21.70;99.90;;;;;;5049253;28;20657;-71
2022/07/13 05:39:07;;;;;;;6.50;5.50;;;21.70;99.90;;;;;;5031546;28;20262;-71
2022/07/13 05:41:32;;;;;;;6.03;5.53;;;21.70;99.90;;;;;;5034518;28;20178;-70
2022/07/13 05:43:59;;;;;;;6.63;5.93;;;21.80;99.90;;;;;;5050836;28;20257;-71
2022/07/13 05:46:25;;;;;;;8.93;6.50;;;21.80;99.90;;;;;;5045171;28;20203;-70
2022/07/13 05:48:51;;;;;;;7.88;6.53;;;21.90;99.90;;;;;;5031088;28;20183;-71
2022/07/13 05:51:16;;;;;;;5.70;5.20;;;22.00;99.90;;;;;;5035656;28;20195;-71
2022/07/13 05:53:42;;;;;;;6.35;5.93;;;22.20;99.90;;;;;;5030742;28;20183;-70
2022/07/13 05:56:07;;;;;;;8.15;7.65;;;22.30;99.90;;;;;;5049897;28;20187;-71
2022/07/13 05:58:33;;;;;;;7.13;6.53;;;22.40;99.90;;;;;;5049818;28;20228;-71
2022/07/13 06:01:00;;;;;;;10.13;8.80;;;22.50;99.90;;;;;;5033529;28;20203;-70
2022/07/13 06:03:25;;;;;;;7.28;6.78;;;22.70;99.90;;;;;;5030718;28;20234;-71
2022/07/13 06:05:51;;;;;;;6.45;5.53;;;22.90;99.90;;;;;;5046460;28;20191;-71
2022/07/13 06:08:17;;;;;;;5.40;4.93;;;23.20;99.90;;;;;;5051124;28;20166;-71
2022/07/13 06:10:42;;;;;;;5.63;5.13;;;23.50;99.90;;;;;;5035593;28;20171;-68
2022/07/13 06:13:08;;;;;;;5.55;5.13;;;24.10;99.90;;;;;;5029656;28;20176;-68
2022/07/13 06:15:34;;;;;;;9.27;5.60;;;24.70;99.90;;;;;;5042229;28;20203;-68
2022/07/13 06:17:59;;;;;;;4.88;4.20;;;25.20;99.90;;;;;;5050738;28;20301;-71
2022/07/13 06:20:25;;;;;;;5.28;4.43;;;25.60;99.90;;;;;;5040204;28;20183;-68
2022/07/13 06:23:32;;;;;;;5.13;4.70;;;26.00;99.90;;;;;;5037636;28;20726;-68
2022/07/13 06:25:40;;;;;;;4.90;4.50;;;26.40;99.90;;;;;;5049591;28;20195;-71
2022/07/13 06:28:05;;;;;;;9.20;4.70;;;26.50;99.90;;;;;;5041904;28;20674;-71
2022/07/13 06:30:32;;;;;;;4.97;4.05;;;26.60;99.90;;;;;;5029869;28;20180;-71
2022/07/13 06:32:58;;;;;;;4.70;4.30;;;26.80;99.90;;;;;;5037989;28;20182;-68
2022/07/13 06:35:23;;;;;;;4.47;4.13;;;26.70;99.90;;;;;;5051081;28;20603;-68
2022/07/13 06:37:49;;;;;;;4.97;4.53;;;26.60;99.90;;;;;;5046515;28;20192;-70
2022/07/13 06:40:15;;;;;;;7.18;4.80;;;26.40;99.90;;;;;;5033763;28;20202;-71
2022/07/13 06:42:41;;;;;;;7.20;4.63;;;26.30;99.90;;;;;;5036825;28;20182;-72
2022/07/13 06:45:07;;;;;;;5.30;4.90;;;26.10;99.90;;;;;;5051674;28;20285;-71
2022/07/13 06:47:33;;;;;;;5.30;4.93;;;26.10;99.90;;;;;;5049496;28;20222;-72
2022/07/13 06:49:58;;;;;;;4.93;4.47;;;26.20;99.90;;;;;;5033744;28;20270;-70
2022/07/13 06:52:24;;;;;;;6.15;4.55;;;26.70;99.90;;;;;;5047270;28;20175;-70
2022/07/13 06:54:49;;;;;;;6.90;4.60;;;27.20;99.90;;;;;;5045458;28;20218;-70
2022/07/13 06:57:15;;;;;;;4.35;4.03;;;27.70;99.90;;;;;;5037746;28;20199;-70
2022/07/13 06:59:42;;;;;;;4.82;4.13;;;28.30;99.90;;;;;;5032879;28;20179;-70
2022/07/13 07:02:08;;;;;;;4.82;4.00;;;28.60;99.90;;;;;;5034393;28;20179;-71
2022/07/13 07:04:34;;;;;;;7.35;3.60;;;28.90;99.90;;;;;;5033816;28;20664;-71
2022/07/13 07:07:00;;;;;;;6.28;4.00;;;29.10;99.90;;;;;;5038566;28;20230;-71
2022/07/13 07:09:26;;;;;;;3.88;3.50;;;29.50;99.90;;;;;;5052053;28;20217;-71
2022/07/13 07:11:52;;;;;;;3.90;3.60;;;29.80;99.90;;;;;;5038084;28;20176;-71
2022/07/13 07:14:17;;;;;;;6.03;4.30;;;30.20;99.90;;;;;;5035075;28;20191;-70
2022/07/13 07:16:43;;;;;;;8.57;5.00;;;30.50;99.90;;;;;;5036007;28;20260;-71
2022/07/13 07:19:10;;;;;;;7.65;3.90;;;30.60;99.90;;;;;;5052876;28;20179;-71
2022/07/13 07:21:36;;;;;;;7.30;3.78;;;30.60;99.90;;;;;;5047970;28;20670;-71
2022/07/13 07:24:03;;;;;;;5.43;3.50;;;30.50;99.90;;;;;;5033381;28;20270;-71
2022/07/13 07:26:30;;;;;;;4.90;3.42;;;30.40;99.90;;;;;;5050546;28;20248;-70
2022/07/13 07:28:56;;;;;;;4.50;4.10;;;29.90;99.90;;;;;;5053631;28;20537;-68
2022/07/13 07:31:23;;;;;;;3.80;3.60;;;29.70;99.90;;;;;;5037247;28;20214;-69
2022/07/13 07:33:48;;;;;;;4.30;4.00;;;29.60;99.90;;;;;;5013789;28;20172;-68
2022/07/13 07:36:16;;;;;;;4.03;3.67;;;29.20;99.90;;;;;;5034912;28;20257;-68
2022/07/13 07:38:44;;;;;;;3.88;3.67;;;29.10;99.90;;;;;;5033434;28;20179;-70
2022/07/13 07:41:10;;;;;;;4.40;3.67;;;28.80;99.90;;;;;;5034821;28;20272;-71
2022/07/13 07:43:36;;;;;;;3.92;3.47;;;28.50;99.90;;;;;;5040341;28;20700;-71
2022/07/13 07:46:02;;;;;;;4.60;4.20;;;28.40;99.90;;;;;;5049822;28;20209;-69
2022/07/13 07:48:28;;;;;;;4.47;4.10;;;28.20;99.90;;;;;;5032983;28;20251;-68
2022/07/13 07:50:53;;;;;;;3.92;3.72;;;27.90;99.90;;;;;;5045777;28;20177;-71
2022/07/13 07:53:19;;;;;;;5.82;4.25;;;27.50;99.90;;;;;;5050662;28;20221;-71
2022/07/13 07:55:45;;;;;;;6.35;4.47;;;26.70;99.90;;;;;;5036151;28;20565;-68
2022/07/13 07:58:10;;;;;;;6.80;4.75;;;26.20;99.90;;;;;;5045500;28;20251;-68
2022/07/13 08:00:37;;;;;;;5.30;4.90;;;25.70;99.90;;;;;;5034085;28;20184;-68
2022/07/13 08:03:03;;;;;;;4.88;4.45;;;25.10;99.90;;;;;;5052822;28;20210;-71
2022/07/13 08:05:30;;;;;;;9.70;8.90;;;24.50;99.90;;;;;;5050867;28;20179;-70
2022/07/13 08:07:56;;;;;;;5.97;5.45;;;24.20;99.90;;;;;;5034010;28;20334;-71
2022/07/13 08:10:22;;;;;;;6.88;6.28;;;23.90;99.90;;;;;;5034029;28;20183;-72
2022/07/13 08:12:48;;;;;;;8.00;7.50;;;23.90;99.90;;;;;;5039016;28;20182;-71
2022/07/13 08:15:13;;;;;;;4.72;4.43;;;23.90;99.90;;;;;;5037459;28;20172;-68
2022/07/13 08:17:39;;;;;;;5.95;5.55;;;24.10;99.90;;;;;;5031206;28;20182;-68
2022/07/13 08:20:06;;;;;;;7.03;6.50;;;24.40;99.90;;;;;;5036150;28;20204;-71
2022/07/13 08:22:32;;;;;;;4.53;4.10;;;24.90;99.90;;;;;;5050679;28;20182;-71
2022/07/13 08:24:57;;;;;;;5.05;4.60;;;25.50;99.90;;;;;;5051535;28;20626;-69
2022/07/13 08:27:23;;;;;;;4.93;3.80;;;26.40;99.90;;;;;;5037139;28;20699;-69
2022/07/13 08:29:48;;;;;;;8.82;3.85;;;27.60;99.90;;;;;;5030981;28;20617;-69
2022/07/13 08:32:14;;;;;;;5.50;4.00;;;28.50;99.90;;;;;;5046236;28;20181;-69
2022/07/13 08:40:10;;;;;;;4.25;3.88;;;30.10;99.90;;;;;;5043457;28;20206;-70
2022/07/13 08:42:37;;;;;;;5.72;4.07;;;30.00;99.90;;;;;;5044578;28;20179;-70
2022/07/13 08:45:03;;;;;;;4.28;3.92;;;30.00;99.90;;;;;;5031940;28;20178;-70
2022/07/13 08:47:30;;;;;;;3.45;3.25;;;30.20;99.90;;;;;;5047400;28;20207;-69
2022/07/13 08:50:07;;;;;;;4.57;3.60;;;30.10;99.90;;;;;;5044064;28;20171;-70
2022/07/13 08:52:35;;;;;;;4.60;4.30;;;30.00;99.90;;;;;;5030950;28;20178;-70
2022/07/13 08:55:03;;;;;;;4.05;3.67;;;30.10;99.90;;;;;;5030675;28;20175;-70
2022/07/13 08:57:30;;;;;;;3.80;3.50;;;30.10;99.90;;;;;;5031830;28;20286;-71
2022/07/13 08:59:55;;;;;;;6.90;3.75;;;30.40;99.90;;;;;;5046625;28;20183;-72
2022/07/13 09:02:21;;;;;;;3.47;3.28;;;30.70;99.90;;;;;;5034586;28;20607;-70
2022/07/13 09:04:46;;;;;;;3.70;3.42;;;30.90;99.90;;;;;;5049501;28;20178;-70
2022/07/13 09:07:12;;;;;;;4.25;3.70;;;30.80;99.90;;;;;;5032349;28;20206;-70
2022/07/13 09:09:38;;;;;;;5.25;3.35;;;30.70;99.90;;;;;;5044579;28;20233;-70
2022/07/13 09:12:33;;;;;;;3.60;3.40;;;30.40;99.90;;;;;;5049401;28;20178;-69
2022/07/13 09:15:02;;;;;;;4.10;3.67;;;30.20;99.90;;;;;;5033360;28;20256;-70
2022/07/13 09:17:33;;;;;;;3.65;3.40;;;30.30;99.90;;;;;;5047601;28;20268;-69
2022/07/13 09:20:19;;;;;;;3.80;3.53;;;30.00;99.90;;;;;;5031447;28;20167;-70
2022/07/13 09:22:52;;;;;;;3.90;3.70;;;29.80;99.90;;;;;;5038745;28;20668;-70
2022/07/13 09:25:34;;;;;;;3.75;3.45;;;29.70;99.90;;;;;;5035869;28;20184;-69
2022/07/13 09:28:02;;;;;;;4.85;3.67;;;29.60;99.90;;;;;;5050136;28;20202;-69
2022/07/13 09:30:28;;;;;;;4.03;3.63;;;29.50;99.90;;;;;;5050300;28;20610;-70
2022/07/13 09:32:55;;;;;;;4.70;3.63;;;29.40;99.90;;;;;;5051260;28;20179;-67
2022/07/13 09:35:40;;;;;;;3.40;3.20;;;29.90;99.90;;;;;;5047965;28;20175;-69
2022/07/13 09:38:05;;;;;;;3.50;3.30;;;30.10;99.90;;;;;;5034381;28;20191;-68
2022/07/13 09:40:31;;;;;;;3.40;3.20;;;30.10;99.90;;;;;;5050717;28;20229;-68
2022/07/13 09:48:26;;;;;;;4.03;3.72;;;30.10;99.90;;;;;;5051788;28;20201;-70
2022/07/13 09:50:54;;;;;;;3.50;3.30;;;30.40;99.90;;;;;;5049715;28;20178;-70
2022/07/13 09:53:28;;;;;;;3.85;3.65;;;30.60;99.90;;;;;;5047522;28;20232;-70
2022/07/13 09:55:54;;;;;;;4.45;3.47;;;30.70;99.90;;;;;;5040765;28;20199;-69
2022/07/13 09:58:29;;;;;;;5.10;3.85;;;31.00;99.90;;;;;;5036337;28;20176;-69
2022/07/13 10:00:56;;;;;;;3.80;3.60;;;30.50;99.90;;;;;;5047786;28;20170;-68
2022/07/13 10:03:23;;;;;;;5.55;3.88;;;30.00;99.90;;;;;;5031299;28;20535;-68
2022/07/13 10:05:53;;;;;;;4.68;4.28;;;29.70;99.90;;;;;;5032304;28;20199;-69
2022/07/13 10:08:20;;;;;;;4.15;3.85;;;29.60;99.90;;;;;;5032133;28;20667;-69
2022/07/13 10:10:47;;;;;;;4.90;4.35;;;29.40;99.90;;;;;;5047749;28;20629;-69
2022/07/13 10:13:13;;;;;;;4.78;4.47;;;29.30;99.90;;;;;;5030171;28;20225;-69
2022/07/13 10:15:40;;;;;;;5.13;4.15;;;29.20;99.90;;;;;;5049595;28;20190;-68
2022/07/13 10:18:09;;;;;;;3.80;3.50;;;29.10;99.90;;;;;;5048547;28;20261;-69
2022/07/13 10:20:38;;;;;;;5.18;4.00;;;29.10;99.90;;;;;;5036367;28;20175;-69
2022/07/13 10:23:04;;;;;;;4.72;4.30;;;29.10;99.90;;;;;;5038943;28;20222;-68
2022/07/13 10:25:44;;;;;;;4.43;4.03;;;29.30;99.90;;;;;;5038196;28;20179;-68
2022/07/13 10:28:12;;;;;;;3.97;3.72;;;29.30;99.90;;;;;;5055039;28;20187;-69
2022/07/13 10:30:38;;;;;;;4.18;3.88;;;29.40;99.90;;;;;;5047169;28;20537;-69
2022/07/13 10:33:21;;;;;;;3.88;3.47;;;29.60;99.90;;;;;;5042233;28;20179;-68
2022/07/13 10:35:52;;;;;;;3.67;3.38;;;29.90;99.90;;;;;;5053098;28;20229;-70
2022/07/13 10:38:22;;;;;;;3.88;3.58;;;30.40;99.90;;;;;;5046545;28;20637;-70
2022/07/13 10:40:48;;;;;;;4.10;3.70;;;30.60;99.90;;;;;;5035913;28;20174;-68
2022/07/13 10:43:16;;;;;;;4.53;3.60;;;30.70;99.90;;;;;;5034543;28;20171;-69
2022/07/13 10:45:51;;;;;;;6.22;3.80;;;30.90;99.90;;;;;;5045122;28;20215;-69
2022/07/13 10:48:18;;;;;;;3.92;3.50;;;30.80;99.90;;;;;;5045912;28;20179;-69
2022/07/13 10:50:54;;;;;;;3.83;3.50;;;30.50;99.90;;;;;;5035432;28;20535;-68
2022/07/13 10:53:50;;;;;;;3.78;3.45;;;30.30;99.90;;;;;;5035122;28;20232;-68
2022/07/13 10:56:17;;;;;;;3.75;3.45;;;30.20;99.90;;;;;;5043851;28;20595;-69
2022/07/13 10:58:44;;;;;;;3.70;3.40;;;30.30;99.90;;;;;;5036397;28;20245;-69
2022/07/13 11:01:33;;;;;;;13.73;3.42;;;30.60;99.90;;;;;;5034074;28;20323;-69
2022/07/13 11:03:59;;;;;;;4.22;3.40;;;31.30;99.90;;;;;;5034558;28;20194;-71
2022/07/13 11:06:25;;;;;;;3.75;3.40;;;31.70;99.90;;;;;;5052203;28;20567;-69
2022/07/13 11:09:06;;;;;;;4.03;3.72;;;31.80;99.90;;;;;;5044351;28;20584;-69
2022/07/13 11:11:32;;;;;;;3.60;3.20;;;31.90;99.90;;;;;;5042610;28;20174;-69
2022/07/13 11:13:58;;;;;;;4.78;4.13;;;32.10;99.90;;;;;;5053450;28;20167;-69
2022/07/13 11:16:46;;;;;;;4.30;4.00;;;31.90;99.90;;;;;;5037126;28;20207;-69
2022/07/13 11:19:12;;;;;;;5.32;3.55;;;31.70;99.90;;;;;;5046863;28;20190;-69
2022/07/13 11:22:06;;;;;;;4.10;3.70;;;31.50;99.90;;;;;;5042425;28;20597;-70
2022/07/13 11:27:28;;;;;;;4.05;3.20;;;31.70;99.90;;;;;;5037297;28;20279;-69
2022/07/13 11:29:58;;;;;;;3.72;3.33;;;32.40;99.90;;;;;;5036234;28;20522;-69
2022/07/13 11:32:25;;;;;;;3.28;3.08;;;33.10;99.90;;;;;;5047808;28;20234;-69
2022/07/13 11:34:52;;;;;;;4.13;3.20;;;33.30;99.90;;;;;;5032034;28;20704;-69
2022/07/13 11:37:25;;;;;;;9.93;3.20;;;33.00;99.90;;;;;;5032585;28;20230;-69
2022/07/13 11:39:51;;;;;;;6.50;3.30;;;32.90;99.90;;;;;;5037128;28;20206;-68
2022/07/13 11:42:22;;;;;;;3.90;3.38;;;32.50;99.90;;;;;;5032492;28;20218;-69
2022/07/13 11:44:50;;;;;;;4.03;3.42;;;32.30;99.90;;;;;;5033133;28;20226;-69
2022/07/13 11:47:15;;;;;;;3.25;3.00;;;32.10;99.90;;;;;;5047822;28;20259;-69
2022/07/13 11:49:46;;;;;;;4.07;3.35;;;31.90;99.90;;;;;;5052840;28;20210;-70
2022/07/13 11:52:21;;;;;;;3.88;3.58;;;31.70;99.90;;;;;;5050161;28;20185;-68
2022/07/13 11:54:59;;;;;;;5.20;3.17;;;31.80;99.90;;;;;;5034665;28;20254;-69
2022/07/13 11:57:25;;;;;;;3.70;3.40;;;31.50;99.90;;;;;;5045461;28;20286;-69
2022/07/13 11:59:50;;;;;;;3.30;3.00;;;31.60;99.90;;;;;;5043577;28;20269;-69
2022/07/13 12:02:16;;;;;;;3.00;2.80;;;31.80;99.90;;;;;;5037648;28;20193;-69
2022/07/13 12:04:46;;;;;;;3.08;2.88;;;31.70;99.90;;;;;;5032646;28;20191;-69
2022/07/13 12:07:20;;;;;;;3.67;3.40;;;32.10;99.90;;;;;;5032158;28;20215;-69
2022/07/13 12:09:56;;;;;;;4.60;3.70;;;32.30;99.90;;;;;;5052789;28;20210;-69
2022/07/13 12:12:33;;;;;;;3.63;3.10;;;32.10;99.90;;;;;;5040806;28;20245;-68
2022/07/13 12:14:59;;;;;;;3.88;3.55;;;32.20;99.90;;;;;;5032635;28;20171;-69
2022/07/13 12:17:27;;;;;;;3.03;2.83;;;32.30;99.90;;;;;;5036331;28;20213;-69
2022/07/13 12:20:07;;;;;;;5.22;2.95;;;32.50;99.90;;;;;;5032309;28;20692;-69
2022/07/13 12:22:33;;;;;;;3.17;2.95;;;32.60;99.90;;;;;;5052183;28;20186;-69
2022/07/13 12:24:58;;;;;;;4.43;3.10;;;32.50;99.90;;;;;;5045616;28;20178;-68
2022/07/13 12:27:26;;;;;;;3.00;2.80;;;32.10;99.90;;;;;;5051749;28;20214;-69
2022/07/13 12:30:05;;;;;;;3.05;2.85;;;32.00;99.90;;;;;;5035351;28;20211;-68
2022/07/13 12:32:31;;;;;;;2.72;2.63;;;32.20;99.90;;;;;;5050739;28;20212;-68
2022/07/13 12:34:56;;;;;;;2.75;2.55;;;32.70;99.90;;;;;;5052253;28;20640;-69
2022/07/13 12:37:35;;;;;;;3.13;2.92;;;32.90;99.90;;;;;;5049326;28;20261;-69
2022/07/13 12:40:00;;;;;;;4.15;2.75;;;32.90;99.90;;;;;;5047651;28;20183;-70
2022/07/13 12:42:26;;;;;;;3.03;2.80;;;33.00;99.90;;;;;;5039145;28;20178;-69
2022/07/13 12:44:53;;;;;;;3.08;2.67;;;33.60;99.90;;;;;;5050622;28;20211;-69
2022/07/13 12:47:24;;;;;;;5.30;2.97;;;34.00;99.90;;;;;;5030965;28;20206;-68
2022/07/13 12:49:50;;;;;;;2.83;2.63;;;34.20;99.90;;;;;;5034049;28;20255;-68
2022/07/13 12:52:19;;;;;;;5.05;2.83;;;34.30;99.90;;;;;;5046274;28;20390;-68
2022/07/13 12:54:53;;;;;;;3.47;3.17;;;34.40;99.90;;;;;;5038877;28;20533;-69
2022/07/13 12:57:19;;;;;;;2.70;2.60;;;34.10;99.90;;;;;;5051296;28;20194;-69
2022/07/13 13:00:09;;;;;;;3.05;2.72;;;33.80;99.90;;;;;;5033908;28;20786;-69